Accueil
METAR-TAF:

METAR-TAF

Aéroports :

Lanvéoc, France

Base aérienne Lanvéoc-Poulmic

latitude: 48-17N, longitude: 004-26W, altitude: 87 m

Observation

Le bulletin a été fait il y a 16 minutes, à 16:30 UTC
Vent 10 kt de ouest/nord-ouest
Température 18°C
Humidité 59%
Pression 1025 hPa
Visibilité 10 km ou plus
pas de nuages en-dessous de 1500 mètres et pas de cumulonimbus.

METAR: LFRL 191630Z AUTO 29010KT CAVOK 18/10 Q1025

Heure: 18:46 (16:46 UTC)

Prévision

Le bulletin a été fait il y a 26 heures et 46 minutes, à 14:00 UTC
Prévision valable du 18 à 15 UTC au 18 à 24 UTC
Vent 15 kt de ouest
Visibilité 10 km ou plus
Quelques nuages à une hauteur de 2000 ft
Temporairement
du 18 à 15 UTC au 18 à 18 UTC
Vent 15 kt de ouest avec des rafales jusqu'à 25 kt

TAF: LFRL 181400Z 1815/1824 28015KT 9999 FEW020 TEMPO 1815/1818 28015G25KT

Observations et prévisions météorologiques de plus de 4000 aéroports (messages METAR et TAF).

Les stations disponibles sont représentées par des disques jaunes et rouges sur la carte.

Passer la souris dessus pour voir le nom de la station.

Cliquer dessus pour voir les observations et prévisions météorologiques.

Pour changer de carte: cliquez sur les boutons verts avec une croix noire pour zoomer, sur le bouton vert avec un tiret pour effectuer un zoom arrière, ou sur les flèches vertes pour les cartes adjacentes.


METAR-TAF: